Time;durP1;ratioP1;P1;durP2;ratioP2;P2;SDS_P1;SDS_P2;PMS_P1;PMS_P2;Temp;Humidity;BMP_temperature;BMP_pressure;BME280_temperature;BME280_humidity;BME280_pressure;Samples;Min_cycle;Max_cycle;Signal;HPM_P1;HPM_P2
2022/07/30 21:04:01;;;;;;;0.20;0.20;;;22.40;99.90;;;;;;5129990;27;20539;-56
2022/07/30 21:06:27;;;;;;;0.00;0.00;;;21.70;99.90;;;;;;5109928;28;20261;-59
2022/07/30 21:08:55;;;;;;;0.40;0.40;;;21.10;99.90;;;;;;5109695;28;20187;-56
2022/07/30 21:11:21;;;;;;;0.70;0.70;;;21.10;99.90;;;;;;5109784;28;20179;-57
2022/07/30 21:13:46;;;;;;;0.10;0.10;;;21.10;99.90;;;;;;5091552;28;20172;-56
2022/07/30 21:16:12;;;;;;;7.10;0.75;;;21.10;99.90;;;;;;5091274;28;20183;-61
2022/07/30 21:18:38;;;;;;;0.10;0.10;;;21.10;99.90;;;;;;5109990;28;20287;-57
2022/07/30 21:21:04;;;;;;;0.10;0.10;;;21.10;99.90;;;;;;5109148;28;20173;-57
2022/07/30 21:23:29;;;;;;;0.00;0.00;;;21.10;99.90;;;;;;5110260;28;20256;-59
2022/07/30 21:25:56;;;;;;;0.00;0.00;;;21.10;99.90;;;;;;5110102;28;20275;-58
2022/07/30 21:28:22;;;;;;;0.00;0.00;;;21.10;99.90;;;;;;5109131;28;20609;-58
2022/07/30 21:30:48;;;;;;;0.00;0.00;;;21.10;99.90;;;;;;5109121;28;20188;-57
2022/07/30 21:33:14;;;;;;;10.98;1.48;;;21.00;99.90;;;;;;5109227;28;20563;-57
2022/07/30 21:35:40;;;;;;;0.00;0.00;;;21.00;99.90;;;;;;5109221;28;20186;-57
2022/07/30 21:38:06;;;;;;;0.20;0.20;;;21.00;99.90;;;;;;5109116;28;20537;-58
2022/07/30 21:40:32;;;;;;;0.00;0.00;;;20.90;99.90;;;;;;5109191;28;20185;-57
2022/07/30 21:42:58;;;;;;;0.00;0.00;;;20.90;99.90;;;;;;5109152;28;20214;-57
2022/07/30 21:45:24;;;;;;;2.03;0.65;;;20.80;99.90;;;;;;5108755;28;20257;-58
2022/07/30 21:47:52;;;;;;;0.35;0.35;;;20.80;99.90;;;;;;5109106;28;20177;-58
2022/07/30 21:50:18;;;;;;;0.65;0.40;;;20.80;99.90;;;;;;5108855;28;20172;-57
2022/07/30 21:52:43;;;;;;;0.90;0.38;;;20.70;99.90;;;;;;5108960;28;20188;-60
2022/07/30 21:55:09;;;;;;;0.80;0.30;;;20.60;99.90;;;;;;5108558;28;20188;-57
2022/07/30 21:57:35;;;;;;;0.00;0.00;;;20.50;99.90;;;;;;5108849;28;20194;-57
2022/07/30 22:00:04;;;;;;;0.17;0.17;;;20.50;99.90;;;;;;5108248;28;20215;-56
2022/07/30 22:02:30;;;;;;;0.00;0.00;;;20.40;99.90;;;;;;5108274;28;20757;-56
2022/07/30 22:04:56;;;;;;;0.00;0.00;;;20.40;99.90;;;;;;5108345;28;20172;-56
2022/07/30 22:07:22;;;;;;;0.00;0.00;;;20.40;99.90;;;;;;5108247;28;20217;-57
2022/07/30 22:09:48;;;;;;;0.00;0.00;;;20.30;99.90;;;;;;5108280;28;20637;-57
2022/07/30 22:12:14;;;;;;;0.80;0.75;;;20.30;99.90;;;;;;5107860;28;20191;-59
2022/07/30 22:14:39;;;;;;;0.55;0.55;;;20.30;99.90;;;;;;5098642;28;20181;-60
2022/07/30 22:17:05;;;;;;;0.00;0.00;;;20.30;99.90;;;;;;5094663;28;20560;-57
2022/07/30 22:19:31;;;;;;;0.00;0.00;;;20.30;99.90;;;;;;5094554;28;20226;-56
2022/07/30 22:21:57;;;;;;;0.00;0.00;;;20.20;99.90;;;;;;5094613;28;20208;-54
2022/07/30 22:24:22;;;;;;;0.00;0.00;;;20.20;99.90;;;;;;5094340;28;20245;-54
2022/07/30 22:26:48;;;;;;;0.88;0.75;;;20.10;99.90;;;;;;5076074;28;20549;-56
2022/07/30 22:29:14;;;;;;;0.08;0.08;;;20.00;99.90;;;;;;5076179;28;20196;-55
2022/07/30 22:31:40;;;;;;;0.08;0.08;;;19.90;99.90;;;;;;5094246;28;20192;-54
2022/07/30 22:34:05;;;;;;;0.00;0.00;;;19.80;99.90;;;;;;5094421;28;20267;-57
2022/07/30 22:36:31;;;;;;;0.00;0.00;;;19.80;99.90;;;;;;5094506;28;20262;-56
2022/07/30 22:38:57;;;;;;;0.00;0.00;;;19.70;99.90;;;;;;5094426;28;20218;-56
2022/07/30 22:41:22;;;;;;;0.00;0.00;;;19.60;99.90;;;;;;5094013;28;20271;-57
2022/07/30 22:43:48;;;;;;;0.00;0.00;;;19.60;99.90;;;;;;5094034;28;20295;-55
2022/07/30 22:46:14;;;;;;;0.00;0.00;;;19.60;99.90;;;;;;5094251;28;20663;-57
2022/07/30 22:48:39;;;;;;;0.00;0.00;;;19.50;99.90;;;;;;5094274;28;20247;-55
2022/07/30 22:51:05;;;;;;;0.75;0.75;;;19.50;99.90;;;;;;5094037;28;20177;-55
2022/07/30 22:53:32;;;;;;;0.00;0.00;;;19.40;99.90;;;;;;5094030;28;20203;-60
2022/07/30 22:55:58;;;;;;;0.20;0.20;;;19.40;99.90;;;;;;5093757;28;20266;-55
2022/07/30 22:58:24;;;;;;;0.00;0.00;;;19.40;99.90;;;;;;5094103;28;20608;-54
2022/07/30 23:00:50;;;;;;;0.93;0.68;;;19.40;99.90;;;;;;5093811;28;20207;-56
2022/07/30 23:03:15;;;;;;;0.70;0.43;;;19.40;99.90;;;;;;5093521;28;20240;-55
2022/07/30 23:05:41;;;;;;;1.83;0.95;;;19.40;99.90;;;;;;5093795;28;20544;-55
2022/07/30 23:08:07;;;;;;;1.65;0.52;;;19.40;99.90;;;;;;5075687;28;20729;-58
2022/07/30 23:10:33;;;;;;;6.25;1.80;;;19.40;99.90;;;;;;5093813;28;20189;-56
2022/07/30 23:12:58;;;;;;;6.95;2.30;;;19.30;99.90;;;;;;5093539;28;20209;-55
2022/07/30 23:15:24;;;;;;;0.20;0.20;;;19.30;99.90;;;;;;5093612;28;20231;-57
2022/07/30 23:17:50;;;;;;;0.30;0.25;;;19.30;99.90;;;;;;5093527;28;20215;-57
2022/07/30 23:20:19;;;;;;;8.68;0.98;;;19.30;99.90;;;;;;5093335;28;20177;-57
2022/07/30 23:22:44;;;;;;;0.00;0.00;;;19.40;99.90;;;;;;5093282;28;20209;-56
2022/07/30 23:25:11;;;;;;;0.00;0.00;;;19.40;99.90;;;;;;5092663;28;20177;-55
2022/07/30 23:27:38;;;;;;;0.03;0.03;;;19.40;99.90;;;;;;5074513;28;20192;-61
2022/07/30 23:30:06;;;;;;;0.00;0.00;;;19.40;99.90;;;;;;5075462;28;20264;-57
2022/07/30 23:32:32;;;;;;;0.10;0.10;;;19.50;99.90;;;;;;5093350;28;20251;-55
2022/07/30 23:34:58;;;;;;;0.00;0.00;;;19.50;99.90;;;;;;5093086;28;20231;-59
2022/07/30 23:37:23;;;;;;;0.00;0.00;;;19.60;99.90;;;;;;5092847;28;20185;-57
2022/07/30 23:39:49;;;;;;;0.47;0.40;;;19.60;99.90;;;;;;5092959;28;20177;-56
2022/07/30 23:42:15;;;;;;;0.00;0.00;;;19.70;99.90;;;;;;5092477;28;20660;-56
2022/07/30 23:44:40;;;;;;;0.85;0.85;;;19.70;99.90;;;;;;5074664;28;20223;-55
2022/07/30 23:47:06;;;;;;;0.10;0.10;;;19.70;99.90;;;;;;5092938;28;20268;-57
2022/07/30 23:49:32;;;;;;;0.00;0.00;;;19.70;99.90;;;;;;5092844;28;20704;-56
2022/07/30 23:51:58;;;;;;;0.00;0.00;;;19.70;99.90;;;;;;5092889;28;20287;-55
2022/07/30 23:54:24;;;;;;;0.32;0.32;;;19.70;99.90;;;;;;5092743;28;20652;-57
2022/07/30 23:56:54;;;;;;;0.10;0.10;;;19.70;99.90;;;;;;5092826;28;20185;-56
2022/07/30 23:59:23;;;;;;;0.70;0.40;;;19.70;99.90;;;;;;5092750;28;20319;-55
